Time;durP1;ratioP1;P1;durP2;ratioP2;P2;SDS_P1;SDS_P2;PMS_P1;PMS_P2;Temp;Humidity;BMP_temperature;BMP_pressure;BME280_temperature;BME280_humidity;BME280_pressure;Samples;Min_cycle;Max_cycle;Signal;HPM_P1;HPM_P2
2021/10/03 00:01:13;;;;;;;13.00;12.50;;;19.50;99.90;;;;;;5048606;28;20806;-64
2021/10/03 00:03:45;;;;;;;13.20;12.70;;;19.50;99.90;;;;;;5051329;28;20735;-65
2021/10/03 00:06:13;;;;;;;12.90;12.40;;;19.50;99.90;;;;;;5051002;28;20790;-64
2021/10/03 00:08:40;;;;;;;13.23;12.73;;;19.50;99.90;;;;;;5050868;28;20491;-65
2021/10/03 00:11:09;;;;;;;14.20;13.57;;;19.50;99.90;;;;;;5041069;28;20519;-64
2021/10/03 00:13:36;;;;;;;13.43;12.93;;;19.50;99.90;;;;;;5054673;28;20455;-64
2021/10/03 00:16:04;;;;;;;12.90;12.50;;;19.50;99.90;;;;;;5055168;28;20444;-64
2021/10/03 00:18:32;;;;;;;13.03;12.53;;;19.50;99.90;;;;;;5053279;28;20825;-64
2021/10/03 00:20:59;;;;;;;13.60;13.10;;;19.60;99.90;;;;;;5039764;28;20476;-64
2021/10/03 00:23:27;;;;;;;13.17;12.67;;;19.50;99.90;;;;;;5038611;28;20448;-64
2021/10/03 00:25:54;;;;;;;12.30;11.90;;;19.60;99.90;;;;;;5046470;28;20459;-64
2021/10/03 00:28:22;;;;;;;13.47;12.87;;;19.60;99.90;;;;;;5034783;28;20893;-64
2021/10/03 00:30:49;;;;;;;12.93;12.53;;;19.60;99.90;;;;;;5048188;28;20472;-64
2021/10/03 00:33:15;;;;;;;13.53;12.90;;;19.60;99.90;;;;;;5054928;28;20925;-64
2021/10/03 00:35:42;;;;;;;12.80;12.17;;;19.60;99.90;;;;;;5054853;28;20440;-64
2021/10/03 00:38:09;;;;;;;13.97;13.20;;;19.60;99.90;;;;;;5044564;28;20445;-64
2021/10/03 00:40:38;;;;;;;12.80;12.40;;;19.60;99.90;;;;;;5046022;28;20503;-64
2021/10/03 00:43:07;;;;;;;13.00;12.50;;;19.60;99.90;;;;;;5039448;28;20441;-64
2021/10/03 00:45:36;;;;;;;13.20;12.60;;;19.60;99.90;;;;;;5046217;28;20447;-64
2021/10/03 00:48:03;;;;;;;12.90;12.30;;;19.60;99.90;;;;;;5054102;28;20479;-64
2021/10/03 00:50:31;;;;;;;13.57;12.90;;;19.60;99.90;;;;;;5045055;28;20477;-64
2021/10/03 00:52:58;;;;;;;13.03;12.57;;;19.60;99.90;;;;;;5041096;28;20447;-65
2021/10/03 00:55:25;;;;;;;13.30;12.60;;;19.60;99.90;;;;;;5054484;28;20447;-65
2021/10/03 00:57:52;;;;;;;12.23;11.83;;;19.60;99.90;;;;;;5053934;28;20960;-65
2021/10/03 01:00:22;;;;;;;12.27;11.90;;;19.70;99.90;;;;;;5047329;28;20476;-65
2021/10/03 01:02:51;;;;;;;12.93;12.43;;;19.60;99.90;;;;;;5034571;28;20444;-65
2021/10/03 01:05:17;;;;;;;12.90;12.40;;;19.70;99.90;;;;;;5034325;28;20448;-64
2021/10/03 01:07:44;;;;;;;12.70;12.20;;;19.60;99.90;;;;;;5033988;28;20449;-65
2021/10/03 01:10:14;;;;;;;13.37;12.97;;;19.60;99.90;;;;;;5038983;28;20472;-65
2021/10/03 01:12:40;;;;;;;12.37;11.97;;;19.60;99.90;;;;;;5054175;28;20444;-65
2021/10/03 01:15:08;;;;;;;12.47;11.97;;;19.60;99.90;;;;;;5053802;28;20502;-65
2021/10/03 01:17:35;;;;;;;13.30;12.80;;;19.60;99.90;;;;;;5052538;28;20448;-65
2021/10/03 01:20:05;;;;;;;12.93;12.43;;;19.70;99.90;;;;;;5049603;28;20465;-64
2021/10/03 01:22:35;;;;;;;12.73;12.23;;;19.60;99.90;;;;;;5033249;28;20458;-65
2021/10/03 01:25:02;;;;;;;13.17;12.70;;;19.60;99.90;;;;;;5034032;28;20453;-64
2021/10/03 01:27:28;;;;;;;13.03;12.53;;;19.70;99.90;;;;;;5036767;28;20448;-65
2021/10/03 01:29:55;;;;;;;13.00;12.40;;;19.70;99.90;;;;;;5050855;28;20485;-65
2021/10/03 01:32:22;;;;;;;12.93;12.43;;;19.60;99.90;;;;;;5033958;28;21100;-65
2021/10/03 01:34:48;;;;;;;13.00;12.50;;;19.60;99.90;;;;;;5033741;28;20950;-66
2021/10/03 01:37:16;;;;;;;12.80;12.20;;;19.60;99.90;;;;;;5034835;28;20449;-64
2021/10/03 01:39:44;;;;;;;13.90;13.40;;;19.60;99.90;;;;;;5033808;28;20516;-64
2021/10/03 01:42:11;;;;;;;13.40;12.80;;;19.50;99.90;;;;;;5053241;28;20456;-64
2021/10/03 01:44:38;;;;;;;13.03;12.53;;;19.50;99.90;;;;;;5038733;28;20469;-64
2021/10/03 01:47:04;;;;;;;13.37;12.87;;;19.50;99.90;;;;;;5033755;28;20796;-65
2021/10/03 01:49:31;;;;;;;13.57;13.07;;;19.50;99.90;;;;;;5033475;28;20488;-65
2021/10/03 01:51:58;;;;;;;12.40;12.00;;;19.50;99.90;;;;;;5052139;28;20471;-65
2021/10/03 01:54:25;;;;;;;13.10;12.60;;;19.50;99.90;;;;;;5053391;28;20455;-65
2021/10/03 01:56:53;;;;;;;13.00;12.50;;;19.50;99.90;;;;;;5036466;28;20453;-66
2021/10/03 01:59:20;;;;;;;12.87;12.13;;;19.50;99.90;;;;;;5033198;28;20468;-65
2021/10/03 02:01:47;;;;;;;12.93;12.33;;;19.50;99.90;;;;;;5048742;28;20440;-65
2021/10/03 02:04:15;;;;;;;12.07;11.67;;;19.50;99.90;;;;;;5033349;28;20927;-65
2021/10/03 02:06:44;;;;;;;12.63;12.13;;;19.50;99.90;;;;;;5033112;28;21125;-65
2021/10/03 02:09:12;;;;;;;12.40;11.90;;;19.50;99.90;;;;;;5032811;28;20843;-65
2021/10/03 02:11:41;;;;;;;12.90;12.20;;;19.40;99.90;;;;;;5048414;28;20476;-65
2021/10/03 02:14:10;;;;;;;14.27;12.80;;;19.30;99.90;;;;;;5053076;28;20852;-65
2021/10/03 02:16:37;;;;;;;12.97;12.43;;;19.30;99.90;;;;;;5052208;28;20451;-65
2021/10/03 02:19:04;;;;;;;13.03;12.33;;;19.30;99.90;;;;;;5032596;28;20466;-64
2021/10/03 02:21:31;;;;;;;12.40;12.00;;;19.30;99.90;;;;;;5046794;28;20455;-65
2021/10/03 02:23:58;;;;;;;12.73;12.33;;;19.20;99.90;;;;;;5052512;28;20456;-64
2021/10/03 02:26:24;;;;;;;12.97;12.47;;;19.20;99.90;;;;;;5034632;28;20455;-65
2021/10/03 02:28:51;;;;;;;13.30;12.80;;;19.20;99.90;;;;;;5039099;28;20491;-65
2021/10/03 02:31:20;;;;;;;12.80;12.30;;;19.20;99.90;;;;;;5040392;28;20445;-65
2021/10/03 02:33:49;;;;;;;12.97;12.40;;;19.20;99.90;;;;;;5032767;28;20460;-66
2021/10/03 02:36:18;;;;;;;13.33;12.73;;;19.10;99.90;;;;;;5032667;28;20445;-65
2021/10/03 02:38:45;;;;;;;13.37;12.87;;;19.10;99.90;;;;;;5032328;28;20472;-66
2021/10/03 02:41:13;;;;;;;12.83;12.40;;;19.10;99.90;;;;;;5043048;28;20809;-65
2021/10/03 02:43:44;;;;;;;12.50;12.10;;;19.10;99.90;;;;;;5052526;28;20472;-65
2021/10/03 02:46:10;;;;;;;13.40;12.90;;;19.10;99.90;;;;;;5050692;28;20816;-64
2021/10/03 02:48:41;;;;;;;13.93;12.83;;;19.10;99.90;;;;;;5040583;28;21004;-65
2021/10/03 02:51:08;;;;;;;13.30;12.80;;;19.10;99.90;;;;;;5042132;28;20541;-65
2021/10/03 02:53:34;;;;;;;13.63;13.00;;;19.10;99.90;;;;;;5032326;28;20464;-65
2021/10/03 02:56:01;;;;;;;14.00;12.80;;;19.10;99.90;;;;;;5032473;28;20445;-65
2021/10/03 02:58:29;;;;;;;12.90;12.40;;;19.10;99.90;;;;;;5031967;28;20441;-65
2021/10/03 03:00:56;;;;;;;13.83;13.00;;;19.00;99.90;;;;;;5033259;28;20473;-65
2021/10/03 03:03:23;;;;;;;13.30;12.80;;;19.00;99.90;;;;;;5032229;28;20445;-65
2021/10/03 03:05:51;;;;;;;13.37;12.67;;;19.00;99.90;;;;;;5032047;28;20865;-65
2021/10/03 03:08:18;;;;;;;13.93;13.30;;;18.90;99.90;;;;;;5031861;28;20452;-65
2021/10/03 03:10:45;;;;;;;14.77;14.27;;;18.90;99.90;;;;;;5039509;28;20468;-64
2021/10/03 03:13:12;;;;;;;13.57;13.00;;;18.80;99.90;;;;;;5051620;28;20834;-66
2021/10/03 03:15:39;;;;;;;14.57;13.87;;;18.60;99.90;;;;;;5051726;28;20755;-65
2021/10/03 03:18:06;;;;;;;14.80;13.90;;;18.50;99.90;;;;;;5051046;28;20443;-64
2021/10/03 03:20:32;;;;;;;14.63;13.90;;;18.40;99.90;;;;;;5046828;28;20492;-65
2021/10/03 03:23:00;;;;;;;14.30;13.70;;;18.40;99.90;;;;;;5031970;28;20449;-65
2021/10/03 03:25:27;;;;;;;13.77;13.17;;;18.40;99.90;;;;;;5031771;28;20819;-65
2021/10/03 03:27:54;;;;;;;14.03;13.40;;;18.40;99.90;;;;;;5031466;28;20449;-65
2021/10/03 03:30:21;;;;;;;13.10;12.50;;;18.50;99.90;;;;;;5033948;28;20506;-65
2021/10/03 03:32:47;;;;;;;13.73;13.10;;;18.50;99.90;;;;;;5051322;28;20848;-65
2021/10/03 03:35:14;;;;;;;14.40;13.80;;;18.60;99.90;;;;;;5051557;28;20440;-66
2021/10/03 03:37:42;;;;;;;14.90;14.17;;;18.60;99.90;;;;;;5035975;28;20449;-65
2021/10/03 03:40:12;;;;;;;14.40;13.77;;;18.60;99.90;;;;;;5031974;28;20465;-66
2021/10/03 03:42:40;;;;;;;14.20;13.60;;;18.60;99.90;;;;;;5051168;28;20448;-65
2021/10/03 03:45:08;;;;;;;13.83;13.23;;;18.70;99.90;;;;;;5051009;28;20451;-65
2021/10/03 03:47:35;;;;;;;13.67;13.17;;;18.70;99.90;;;;;;5051083;28;20445;-65
2021/10/03 03:50:02;;;;;;;14.07;13.50;;;18.80;99.90;;;;;;5050873;28;20483;-65
2021/10/03 03:52:28;;;;;;;14.33;13.73;;;18.80;99.90;;;;;;5033968;28;20445;-65
2021/10/03 03:54:55;;;;;;;15.33;14.43;;;18.80;99.90;;;;;;5031626;28;20449;-65
2021/10/03 03:57:23;;;;;;;15.17;14.30;;;18.90;99.90;;;;;;5031550;28;20923;-65
2021/10/03 03:59:50;;;;;;;14.47;13.87;;;18.90;99.90;;;;;;5031095;28;20461;-65
2021/10/03 04:02:17;;;;;;;14.23;13.73;;;18.90;99.90;;;;;;5048940;28;20452;-65
2021/10/03 04:04:44;;;;;;;13.97;13.37;;;19.00;99.90;;;;;;5051176;28;20480;-65
2021/10/03 04:07:11;;;;;;;14.80;14.10;;;19.00;99.90;;;;;;5050970;28;20455;-65
2021/10/03 04:09:38;;;;;;;14.13;13.43;;;19.00;99.90;;;;;;5049661;28;20480;-65
2021/10/03 04:12:05;;;;;;;15.23;14.57;;;19.00;99.90;;;;;;5034909;28;20815;-65
2021/10/03 04:14:33;;;;;;;14.30;13.70;;;19.10;99.90;;;;;;5031227;28;20780;-65
2021/10/03 04:17:00;;;;;;;14.10;13.40;;;19.10;99.90;;;;;;5031178;28;20452;-65
2021/10/03 04:19:26;;;;;;;15.70;14.87;;;19.10;99.90;;;;;;5030914;28;20464;-65
2021/10/03 04:21:53;;;;;;;15.10;14.37;;;19.20;99.90;;;;;;5043243;28;20440;-64
2021/10/03 04:24:20;;;;;;;15.57;14.50;;;19.10;99.90;;;;;;5051080;28;20948;-65
2021/10/03 04:26:46;;;;;;;15.20;14.50;;;19.20;99.90;;;;;;5050817;28;20660;-66
2021/10/03 04:29:13;;;;;;;16.87;15.87;;;19.20;99.90;;;;;;5050809;28;20483;-64
2021/10/03 04:31:41;;;;;;;14.33;13.63;;;19.20;99.90;;;;;;5045278;28;20451;-65
2021/10/03 04:34:08;;;;;;;15.00;14.20;;;19.30;99.90;;;;;;5051102;28;20501;-64
2021/10/03 04:36:35;;;;;;;15.47;14.67;;;19.30;99.90;;;;;;5050724;28;20452;-65
2021/10/03 04:39:02;;;;;;;15.90;15.00;;;19.30;99.90;;;;;;5050639;28;20977;-65
2021/10/03 04:41:29;;;;;;;16.27;15.23;;;19.30;99.90;;;;;;5040546;28;20448;-65
2021/10/03 04:43:56;;;;;;;15.60;14.90;;;19.40;99.90;;;;;;5031045;28;20445;-65
2021/10/03 04:46:22;;;;;;;16.53;15.50;;;19.40;99.90;;;;;;5035196;28;20445;-66
2021/10/03 04:48:51;;;;;;;15.87;15.07;;;19.50;99.90;;;;;;5050297;28;20459;-65
2021/10/03 04:51:17;;;;;;;16.20;15.27;;;19.50;99.90;;;;;;5049184;28;20987;-66
2021/10/03 04:53:44;;;;;;;16.67;15.87;;;19.50;99.90;;;;;;5050710;28;20440;-65
2021/10/03 04:56:11;;;;;;;16.13;15.23;;;19.60;99.90;;;;;;5051092;28;20946;-65
2021/10/03 04:58:38;;;;;;;16.37;15.43;;;19.60;99.90;;;;;;5054117;28;20440;-65
2021/10/03 05:01:05;;;;;;;17.00;16.10;;;19.60;99.90;;;;;;5047416;28;20444;-65
2021/10/03 05:03:35;;;;;;;15.60;14.80;;;19.60;99.90;;;;;;5044197;28;20440;-65
2021/10/03 05:06:03;;;;;;;16.00;15.10;;;19.70;99.90;;;;;;5054080;28;20546;-65
2021/10/03 05:08:29;;;;;;;16.43;15.63;;;19.80;99.90;;;;;;5054114;28;20440;-65
2021/10/03 05:10:56;;;;;;;16.37;15.37;;;19.80;99.90;;;;;;5048437;28;20491;-65
2021/10/03 05:13:23;;;;;;;16.53;15.67;;;19.80;99.90;;;;;;5043115;28;20455;-65
2021/10/03 05:15:49;;;;;;;15.57;14.87;;;19.90;99.90;;;;;;5052383;28;20448;-65
2021/10/03 05:18:16;;;;;;;16.07;15.23;;;19.90;99.90;;;;;;5053970;28;20862;-65
2021/10/03 05:20:43;;;;;;;16.77;15.87;;;19.90;99.90;;;;;;5050181;28;20496;-65
2021/10/03 05:23:11;;;;;;;16.00;15.10;;;19.90;99.90;;;;;;5034014;28;20445;-65
2021/10/03 05:25:37;;;;;;;16.37;15.57;;;19.90;99.90;;;;;;5034024;28;20441;-65
2021/10/03 05:28:04;;;;;;;16.67;15.80;;;19.90;99.90;;;;;;5033907;28;20815;-65
2021/10/03 05:30:31;;;;;;;16.73;15.93;;;19.80;99.90;;;;;;5034805;28;20485;-64
2021/10/03 05:32:58;;;;;;;16.67;15.70;;;19.60;99.90;;;;;;5036037;28;20943;-65
2021/10/03 05:35:25;;;;;;;16.97;16.10;;;19.60;99.90;;;;;;5033750;28;20452;-65
2021/10/03 05:37:52;;;;;;;17.13;16.13;;;19.50;99.90;;;;;;5033600;28;20445;-65
2021/10/03 05:40:20;;;;;;;17.70;16.50;;;19.40;99.90;;;;;;5033845;28;20519;-65
2021/10/03 05:42:47;;;;;;;16.90;15.70;;;19.30;99.90;;;;;;5053094;28;20449;-65
2021/10/03 05:45:14;;;;;;;16.30;15.60;;;19.30;99.90;;;;;;5053454;28;20451;-65
2021/10/03 05:47:40;;;;;;;17.13;16.13;;;19.30;99.90;;;;;;5037958;28;20452;-65
2021/10/03 05:50:09;;;;;;;15.67;14.87;;;19.20;99.90;;;;;;5033130;28;20507;-65
2021/10/03 05:52:36;;;;;;;17.30;16.20;;;19.20;99.90;;;;;;5049455;28;20982;-65
2021/10/03 05:55:04;;;;;;;16.80;15.90;;;19.20;99.90;;;;;;5053492;28;21189;-65
2021/10/03 05:57:32;;;;;;;17.70;16.60;;;19.10;99.90;;;;;;5043066;28;20822;-65
2021/10/03 05:59:58;;;;;;;16.63;15.63;;;19.10;99.90;;;;;;5033089;28;20461;-65
2021/10/03 06:02:25;;;;;;;16.30;15.50;;;19.00;99.90;;;;;;5035587;28;20783;-65
2021/10/03 06:04:52;;;;;;;15.63;14.83;;;19.00;99.90;;;;;;5033260;28;20456;-65
2021/10/03 06:07:18;;;;;;;16.23;15.27;;;19.10;99.90;;;;;;5033030;28;20448;-65
2021/10/03 06:09:45;;;;;;;16.80;15.80;;;19.10;99.90;;;;;;5032893;28;20495;-68
2021/10/03 06:12:12;;;;;;;15.17;14.50;;;19.20;99.90;;;;;;5034328;28;20508;-66
2021/10/03 06:14:40;;;;;;;16.93;16.03;;;19.20;99.90;;;;;;5033180;28;20440;-67
2021/10/03 06:17:07;;;;;;;16.47;15.60;;;19.30;99.90;;;;;;5042997;28;20440;-66
2021/10/03 06:19:33;;;;;;;15.60;14.80;;;19.30;99.90;;;;;;5041375;28;20469;-66
2021/10/03 06:22:01;;;;;;;16.43;15.60;;;19.30;99.90;;;;;;5044943;28;20444;-68
2021/10/03 06:24:28;;;;;;;17.77;16.53;;;19.40;99.90;;;;;;5040880;28;20480;-65
2021/10/03 06:26:55;;;;;;;17.20;16.33;;;19.40;99.90;;;;;;5026816;28;20790;-66
2021/10/03 06:29:22;;;;;;;17.10;16.30;;;19.40;99.90;;;;;;5022010;28;20476;-66
2021/10/03 06:31:50;;;;;;;17.43;16.10;;;19.40;99.90;;;;;;5038016;28;20456;-66
2021/10/03 06:34:17;;;;;;;17.23;16.43;;;19.40;99.90;;;;;;5040912;28;20929;-67
2021/10/03 06:36:44;;;;;;;17.80;16.80;;;19.40;99.90;;;;;;5040846;28;20456;-66
2021/10/03 06:39:11;;;;;;;17.03;16.23;;;19.40;99.90;;;;;;5040175;28;20471;-65
2021/10/03 06:41:37;;;;;;;16.70;15.90;;;19.40;99.90;;;;;;5032165;28;20913;-65
2021/10/03 06:44:06;;;;;;;16.50;15.70;;;19.40;99.90;;;;;;5020723;28;20449;-66
2021/10/03 06:46:33;;;;;;;17.73;17.03;;;19.40;99.90;;;;;;5020816;28;20500;-66
2021/10/03 06:49:01;;;;;;;18.97;18.03;;;19.30;99.90;;;;;;5020155;28;20512;-66
2021/10/03 06:51:28;;;;;;;18.00;17.10;;;19.10;99.90;;;;;;5027471;28;20913;-66
2021/10/03 06:53:54;;;;;;;19.63;18.10;;;19.10;99.90;;;;;;5040433;28;20840;-65
2021/10/03 06:56:21;;;;;;;17.10;16.23;;;19.10;99.90;;;;;;5035518;28;20441;-66
2021/10/03 06:58:48;;;;;;;18.53;17.37;;;19.00;99.90;;;;;;5049675;28;20494;-66
2021/10/03 07:01:15;;;;;;;17.90;17.00;;;18.90;99.90;;;;;;5051554;28;20444;-66
2021/10/03 07:03:42;;;;;;;18.77;17.40;;;18.80;99.90;;;;;;5052119;28;20945;-66
2021/10/03 07:06:11;;;;;;;18.20;17.10;;;18.80;99.90;;;;;;5051958;28;20502;-66
2021/10/03 07:08:38;;;;;;;17.30;16.23;;;18.90;99.90;;;;;;5051570;28;20958;-66
2021/10/03 07:11:04;;;;;;;17.97;16.87;;;18.80;99.90;;;;;;5051843;28;20483;-66
2021/10/03 07:13:32;;;;;;;17.70;16.40;;;18.80;99.90;;;;;;5051856;28;20448;-66
2021/10/03 07:15:59;;;;;;;17.50;16.53;;;18.80;99.90;;;;;;5051825;28;20814;-66
2021/10/03 07:18:25;;;;;;;16.83;15.83;;;18.70;99.90;;;;;;5051344;28;20456;-66
2021/10/03 07:20:52;;;;;;;16.30;15.53;;;18.70;99.90;;;;;;5051482;28;20459;-66
2021/10/03 07:23:20;;;;;;;17.03;16.10;;;18.60;99.90;;;;;;5051885;28;20531;-66
2021/10/03 07:25:47;;;;;;;16.13;15.17;;;18.50;99.90;;;;;;5051721;28;20789;-66
2021/10/03 07:28:14;;;;;;;18.40;17.10;;;18.60;99.90;;;;;;5051412;28;20444;-66
2021/10/03 07:30:41;;;;;;;17.50;16.40;;;18.50;99.90;;;;;;5051551;28;20480;-67
2021/10/03 07:33:07;;;;;;;18.10;16.80;;;18.50;99.90;;;;;;5051679;28;20523;-66
2021/10/03 07:35:34;;;;;;;18.13;16.60;;;18.40;99.90;;;;;;5051544;28;20933;-66
2021/10/03 07:38:02;;;;;;;16.50;15.60;;;18.40;99.90;;;;;;5051413;28;20440;-66
2021/10/03 07:40:30;;;;;;;17.70;16.70;;;18.40;99.90;;;;;;5051433;28;20482;-66
2021/10/03 07:42:56;;;;;;;15.90;15.00;;;18.30;99.90;;;;;;5051523;28;20448;-65
2021/10/03 07:45:23;;;;;;;16.20;15.20;;;18.30;99.90;;;;;;5051683;28;20668;-66
2021/10/03 07:47:50;;;;;;;17.80;16.37;;;18.30;99.90;;;;;;5051336;28;20448;-65
2021/10/03 07:50:17;;;;;;;15.53;14.73;;;18.20;99.90;;;;;;5061935;22;20515;-69
2021/10/03 07:52:43;;;;;;;15.60;14.67;;;18.20;99.90;;;;;;5023424;28;21276;-68
2021/10/03 07:55:11;;;;;;;16.00;14.90;;;18.20;99.90;;;;;;5031513;28;20498;-69
2021/10/03 07:57:39;;;;;;;16.17;15.27;;;18.10;99.90;;;;;;5031477;28;20445;-68
2021/10/03 08:00:06;;;;;;;16.03;15.23;;;18.10;99.90;;;;;;5031127;28;20457;-68
2021/10/03 08:02:33;;;;;;;15.53;14.63;;;18.20;99.90;;;;;;5031430;28;20441;-68
2021/10/03 08:05:00;;;;;;;17.10;16.10;;;18.20;99.90;;;;;;5031545;28;20452;-69
2021/10/03 08:07:26;;;;;;;16.10;15.07;;;18.10;99.90;;;;;;5031453;28;20472;-68
2021/10/03 08:09:55;;;;;;;16.53;15.53;;;18.10;99.90;;;;;;5030946;28;20464;-68
2021/10/03 08:12:22;;;;;;;15.70;14.50;;;18.10;99.90;;;;;;5031271;28;20449;-69
2021/10/03 08:14:50;;;;;;;14.83;13.93;;;18.10;99.90;;;;;;5031341;28;20468;-68
2021/10/03 08:17:16;;;;;;;14.80;14.00;;;18.20;99.90;;;;;;5031384;28;20445;-68
2021/10/03 08:19:43;;;;;;;15.57;14.77;;;18.20;99.90;;;;;;5031166;28;20469;-69
2021/10/03 08:22:10;;;;;;;15.77;14.30;;;18.20;99.90;;;;;;5031188;28;20441;-69
2021/10/03 08:24:37;;;;;;;15.37;14.30;;;18.20;99.90;;;;;;5031276;28;20471;-69
2021/10/03 08:27:04;;;;;;;16.53;15.60;;;18.20;99.90;;;;;;5031106;28;20441;-68
2021/10/03 08:29:31;;;;;;;15.80;14.80;;;18.30;99.90;;;;;;5030899;28;20477;-69
2021/10/03 08:31:59;;;;;;;14.90;14.10;;;18.30;99.90;;;;;;5034556;28;20477;-68
2021/10/03 08:34:25;;;;;;;15.97;14.60;;;18.40;99.90;;;;;;5035098;28;20449;-68
2021/10/03 08:36:52;;;;;;;15.33;14.33;;;18.40;99.90;;;;;;5035115;28;20864;-68
2021/10/03 08:39:19;;;;;;;14.77;14.00;;;18.40;99.90;;;;;;5034695;28;20445;-69
2021/10/03 08:41:46;;;;;;;16.27;15.37;;;18.50;99.90;;;;;;5034984;28;20471;-68
2021/10/03 08:44:13;;;;;;;14.67;13.90;;;18.50;99.90;;;;;;5034892;28;20437;-69
2021/10/03 08:46:42;;;;;;;15.27;14.37;;;18.60;99.90;;;;;;5034842;28;20518;-68
2021/10/03 08:49:10;;;;;;;14.63;14.00;;;18.60;99.90;;;;;;5034489;28;20483;-69
2021/10/03 08:51:37;;;;;;;13.87;13.10;;;18.60;99.90;;;;;;5034736;28;20491;-68
2021/10/03 08:54:04;;;;;;;14.90;14.20;;;18.50;99.90;;;;;;5034961;28;20447;-68
2021/10/03 08:56:31;;;;;;;15.67;14.87;;;18.60;99.90;;;;;;5034730;28;20459;-70
2021/10/03 08:58:58;;;;;;;14.73;13.83;;;18.50;99.90;;;;;;5034418;28;20472;-69
2021/10/03 09:01:25;;;;;;;14.73;13.83;;;18.50;99.90;;;;;;5034545;28;20468;-69
2021/10/03 09:03:55;;;;;;;14.20;13.40;;;18.50;99.90;;;;;;5034494;28;20455;-70
2021/10/03 09:06:25;;;;;;;14.90;13.80;;;18.50;99.90;;;;;;5034536;28;20449;-69
2021/10/03 09:08:54;;;;;;;14.27;13.47;;;18.50;99.90;;;;;;5034269;28;20452;-70
2021/10/03 09:11:21;;;;;;;14.40;13.70;;;18.40;99.90;;;;;;5034173;28;20571;-70
2021/10/03 09:13:50;;;;;;;14.67;13.80;;;18.50;99.90;;;;;;5026969;28;20442;-70
2021/10/03 09:16:21;;;;;;;14.87;14.07;;;18.50;99.90;;;;;;5014395;28;20456;-69
2021/10/03 09:18:49;;;;;;;13.80;13.17;;;18.60;99.90;;;;;;5013899;28;20465;-69
2021/10/03 09:21:42;;;;;;;14.97;14.10;;;18.70;99.90;;;;;;5015785;28;20474;-68
2021/10/03 09:24:11;;;;;;;15.20;14.40;;;18.80;99.90;;;;;;5021646;28;20543;-68
2021/10/03 09:26:51;;;;;;;14.60;13.90;;;19.00;99.90;;;;;;5014332;28;20445;-68
2021/10/03 09:29:23;;;;;;;14.13;13.53;;;19.10;99.90;;;;;;5014036;28;20850;-68
2021/10/03 09:32:07;;;;;;;15.60;14.93;;;19.20;99.90;;;;;;5019861;28;20818;-68
2021/10/03 09:34:34;;;;;;;16.80;15.90;;;19.40;99.90;;;;;;5034030;28;20994;-68
2021/10/03 09:40:03;;;;;;;15.67;14.57;;;19.50;99.90;;;;;;5108956;27;20577;-67
2021/10/03 09:42:30;;;;;;;15.30;14.60;;;19.60;99.90;;;;;;5090794;28;20927;-67
2021/10/03 09:45:08;;;;;;;16.50;15.60;;;19.70;99.90;;;;;;5089098;28;20442;-68
2021/10/03 09:47:37;;;;;;;15.60;14.80;;;19.80;99.90;;;;;;5088917;28;20885;-67
2021/10/03 09:52:38;;;;;;;16.27;15.57;;;20.10;99.90;;;;;;5006134;28;20494;-66
2021/10/03 09:55:09;;;;;;;15.47;14.77;;;20.10;99.90;;;;;;5009072;28;20449;-66
2021/10/03 09:57:38;;;;;;;16.83;15.73;;;20.20;99.90;;;;;;5009008;28;20442;-66
2021/10/03 10:00:06;;;;;;;15.30;14.57;;;20.30;99.90;;;;;;5008680;28;20834;-65
2021/10/03 10:02:33;;;;;;;17.40;16.50;;;20.40;99.90;;;;;;5007933;28;20446;-66
2021/10/03 10:05:00;;;;;;;18.33;17.23;;;20.50;99.90;;;;;;5008636;28;20493;-65
2021/10/03 10:07:27;;;;;;;17.43;16.43;;;20.50;99.90;;;;;;5008917;28;20446;-66
2021/10/03 10:09:54;;;;;;;17.00;16.10;;;20.60;99.90;;;;;;5008725;28;20481;-66
2021/10/03 10:12:24;;;;;;;17.30;16.40;;;20.50;99.90;;;;;;4999269;28;20550;-66
2021/10/03 10:14:58;;;;;;;17.50;16.40;;;20.50;99.90;;;;;;4989284;28;20860;-61
2021/10/03 10:17:30;;;;;;;17.77;16.83;;;20.40;99.90;;;;;;4989328;28;20457;-60
2021/10/03 10:19:57;;;;;;;15.87;15.17;;;20.30;99.90;;;;;;4988878;28;20802;-61
2021/10/03 10:22:36;;;;;;;16.53;15.80;;;20.30;99.90;;;;;;4997964;28;20898;-60
2021/10/03 10:25:06;;;;;;;17.10;16.10;;;20.30;99.90;;;;;;5008818;28;20465;-61
2021/10/03 10:28:04;;;;;;;16.63;15.93;;;20.30;99.90;;;;;;5008529;28;20447;-62
2021/10/03 10:30:31;;;;;;;16.30;15.60;;;20.30;99.90;;;;;;5000653;28;20996;-61
2021/10/03 10:33:11;;;;;;;17.53;16.83;;;20.20;99.90;;;;;;4989300;28;20454;-58
2021/10/03 10:35:41;;;;;;;18.20;16.53;;;20.20;99.90;;;;;;4989039;28;20450;-61
2021/10/03 10:38:21;;;;;;;16.80;16.00;;;20.20;99.90;;;;;;4988609;28;20450;-62
2021/10/03 10:40:50;;;;;;;16.57;15.67;;;20.20;99.90;;;;;;4989150;28;20473;-61
2021/10/03 10:43:43;;;;;;;17.53;16.33;;;20.20;99.90;;;;;;4988909;28;20805;-60
2021/10/03 10:46:48;;;;;;;17.40;16.50;;;20.20;99.90;;;;;;4984528;28;20937;-61
2021/10/03 10:49:36;;;;;;;18.10;17.13;;;20.30;99.90;;;;;;4988199;28;20483;-61
2021/10/03 10:52:31;;;;;;;16.93;16.13;;;20.40;99.90;;;;;;4984669;28;20475;-61
2021/10/03 10:55:21;;;;;;;16.60;15.70;;;20.40;99.90;;;;;;4988771;28;20984;-59
2021/10/03 10:58:08;;;;;;;16.73;15.80;;;20.40;99.90;;;;;;4975399;28;20447;-61
2021/10/03 11:00:56;;;;;;;15.60;15.00;;;20.40;99.90;;;;;;4997250;28;20469;-59
2021/10/03 11:03:55;;;;;;;16.27;15.13;;;20.40;99.90;;;;;;5014524;28;20817;-61
2021/10/03 11:06:55;;;;;;;15.80;14.97;;;20.50;99.90;;;;;;5014368;28;20496;-60
2021/10/03 11:09:22;;;;;;;16.50;15.33;;;20.50;99.90;;;;;;5008105;28;20489;-59
2021/10/03 11:12:07;;;;;;;15.03;14.43;;;20.50;99.90;;;;;;4994634;28;20775;-57
2021/10/03 11:14:33;;;;;;;16.93;16.13;;;20.60;99.90;;;;;;4994527;28;20486;-61
2021/10/03 11:17:03;;;;;;;16.77;15.97;;;20.60;99.90;;;;;;4994497;28;20439;-59
2021/10/03 11:19:38;;;;;;;16.27;15.53;;;20.60;99.90;;;;;;4991591;28;20448;-58
2021/10/03 11:22:09;;;;;;;15.47;14.77;;;20.50;99.90;;;;;;4974906;28;21019;-54
2021/10/03 11:24:41;;;;;;;15.33;14.43;;;20.50;99.90;;;;;;4974922;28;20550;-60
2021/10/03 11:27:10;;;;;;;15.40;14.80;;;20.50;99.90;;;;;;4975039;28;20854;-57
2021/10/03 11:29:39;;;;;;;16.20;15.40;;;20.40;99.90;;;;;;4977025;28;20984;-58
2021/10/03 11:32:07;;;;;;;16.80;16.00;;;20.40;99.90;;;;;;4994101;28;20844;-60
2021/10/03 11:34:37;;;;;;;16.43;15.40;;;20.40;99.90;;;;;;4994329;28;20450;-62
2021/10/03 11:37:05;;;;;;;16.70;15.73;;;20.30;99.90;;;;;;4994274;28;20447;-62
2021/10/03 11:39:46;;;;;;;17.00;16.30;;;20.30;99.90;;;;;;4978137;28;20444;-60
2021/10/03 11:42:14;;;;;;;16.37;15.67;;;20.30;99.90;;;;;;4974749;28;20471;-59
2021/10/03 11:44:43;;;;;;;16.70;15.77;;;20.20;99.90;;;;;;4974763;28;20459;-55
2021/10/03 11:47:11;;;;;;;16.53;15.80;;;20.30;99.90;;;;;;4974770;28;20459;-53
2021/10/03 11:49:42;;;;;;;16.10;15.37;;;20.20;99.90;;;;;;4990159;28;20479;-57
2021/10/03 11:52:13;;;;;;;17.07;16.37;;;20.30;99.90;;;;;;4993780;28;20839;-61
2021/10/03 11:54:44;;;;;;;17.27;16.37;;;20.30;99.90;;;;;;4993984;28;20554;-59
2021/10/03 11:57:16;;;;;;;16.60;15.83;;;20.20;99.90;;;;;;4993856;28;20450;-61
2021/10/03 11:59:43;;;;;;;16.67;15.77;;;20.10;99.90;;;;;;4977157;28;20973;-60
2021/10/03 12:02:15;;;;;;;16.30;15.60;;;20.00;99.90;;;;;;4973321;28;20474;-57
2021/10/03 12:04:56;;;;;;;16.60;15.80;;;20.10;99.90;;;;;;4974335;28;20456;-59
2021/10/03 12:07:24;;;;;;;17.30;16.23;;;20.10;99.90;;;;;;4974265;28;20455;-60
2021/10/03 12:09:59;;;;;;;16.43;15.73;;;20.10;99.90;;;;;;4990100;28;20479;-55
2021/10/03 12:12:59;;;;;;;16.83;15.83;;;20.20;99.90;;;;;;4993373;28;20513;-58
2021/10/03 12:16:01;;;;;;;15.77;15.07;;;20.20;99.90;;;;;;4993432;28;20449;-58
2021/10/03 12:18:42;;;;;;;17.00;16.20;;;20.20;99.90;;;;;;4986500;28;20450;-57
2021/10/03 12:21:12;;;;;;;16.53;15.73;;;20.30;99.90;;;;;;4973833;28;20470;-55
2021/10/03 12:23:46;;;;;;;15.60;14.83;;;20.30;99.90;;;;;;4974323;28;20645;-57
2021/10/03 12:26:28;;;;;;;16.43;15.63;;;20.40;99.90;;;;;;4973811;28;20518;-57
2021/10/03 12:29:01;;;;;;;17.27;16.20;;;20.50;99.90;;;;;;4973690;28;20479;-57
2021/10/03 12:31:43;;;;;;;15.60;15.00;;;20.60;99.90;;;;;;4977371;28;20465;-55
2021/10/03 12:34:29;;;;;;;16.47;15.77;;;20.60;99.90;;;;;;4973775;28;20447;-55
2021/10/03 12:37:02;;;;;;;15.93;15.23;;;20.70;99.90;;;;;;4973318;28;20439;-57
2021/10/03 12:39:30;;;;;;;15.97;15.17;;;20.90;99.90;;;;;;4973385;28;20844;-58
2021/10/03 12:41:59;;;;;;;15.33;14.63;;;21.00;99.90;;;;;;4992257;28;20466;-57
2021/10/03 12:44:27;;;;;;;15.60;14.80;;;21.10;99.90;;;;;;4993068;28;20447;-61